Time;durP1;ratioP1;P1;durP2;ratioP2;P2;SDS_P1;SDS_P2;PMS_P1;PMS_P2;Temp;Humidity;BMP_temperature;BMP_pressure;BME280_temperature;BME280_humidity;BME280_pressure;Samples;Min_cycle;Max_cycle;Signal;HPM_P1;HPM_P2
2024/01/14 00:00:58;;;;;;;88.10;35.15;;;3.40;69.10;;;;;;5083108;28;20389;-74
2024/01/14 00:03:24;;;;;;;84.43;35.33;;;3.30;68.50;;;;;;5102008;28;20382;-74
2024/01/14 00:05:49;;;;;;;84.63;35.80;;;3.30;68.80;;;;;;5104150;28;20374;-73
2024/01/14 00:08:15;;;;;;;89.67;35.63;;;3.30;69.10;;;;;;5100183;28;20384;-74
2024/01/14 00:10:40;;;;;;;90.00;36.03;;;3.30;69.80;;;;;;5092359;28;20390;-72
2024/01/14 00:13:06;;;;;;;88.20;35.87;;;3.30;69.60;;;;;;5092360;28;20374;-74
2024/01/14 00:15:31;;;;;;;89.68;36.90;;;3.20;69.40;;;;;;5074402;28;20846;-74
2024/01/14 00:17:57;;;;;;;85.80;36.45;;;3.30;68.80;;;;;;5074448;28;20470;-73
2024/01/14 00:20:22;;;;;;;88.45;36.75;;;3.20;68.40;;;;;;5093155;28;20436;-72
2024/01/14 00:22:48;;;;;;;81.60;36.33;;;3.20;69.50;;;;;;5074686;28;20370;-74
2024/01/14 00:25:14;;;;;;;88.47;37.28;;;3.30;68.80;;;;;;5094784;28;20386;-74
2024/01/14 00:27:39;;;;;;;84.73;34.83;;;3.30;68.10;;;;;;5095520;28;20381;-74
2024/01/14 00:30:06;;;;;;;88.22;38.00;;;3.20;68.60;;;;;;5093437;28;20433;-75
2024/01/14 00:32:32;;;;;;;87.15;37.05;;;3.30;68.20;;;;;;5092826;28;20865;-74
2024/01/14 00:34:57;;;;;;;81.78;36.03;;;3.30;68.10;;;;;;5092396;28;20480;-74
2024/01/14 00:37:24;;;;;;;87.33;35.70;;;3.30;68.80;;;;;;5092966;28;20413;-72
2024/01/14 00:39:49;;;;;;;85.97;35.83;;;3.30;68.70;;;;;;5092065;28;20421;-74
2024/01/14 00:42:15;;;;;;;88.50;37.23;;;3.30;68.40;;;;;;5092342;28;20378;-75
2024/01/14 00:44:44;;;;;;;81.27;35.60;;;3.30;68.70;;;;;;5074592;28;20386;-74
2024/01/14 00:47:09;;;;;;;85.70;35.22;;;3.30;68.30;;;;;;5092722;28;20382;-74
2024/01/14 00:49:35;;;;;;;90.13;35.63;;;3.30;68.80;;;;;;5092598;28;20891;-73
2024/01/14 00:52:00;;;;;;;89.33;36.40;;;3.30;68.40;;;;;;5092389;28;20385;-74
2024/01/14 00:54:26;;;;;;;83.00;34.93;;;3.40;67.60;;;;;;5094024;28;20748;-75
2024/01/14 00:56:52;;;;;;;85.90;36.83;;;3.30;67.40;;;;;;5092764;28;20494;-74
2024/01/14 00:59:17;;;;;;;78.50;35.90;;;3.30;68.10;;;;;;5092300;28;20813;-74
2024/01/14 01:01:43;;;;;;;86.97;35.95;;;3.30;67.70;;;;;;5092340;28;20411;-73
2024/01/14 01:04:08;;;;;;;85.90;35.63;;;3.30;67.40;;;;;;5097047;28;20449;-74
2024/01/14 01:06:34;;;;;;;83.18;35.28;;;3.20;67.80;;;;;;5098314;28;20726;-74
2024/01/14 01:09:00;;;;;;;77.63;34.13;;;3.20;68.60;;;;;;5095738;28;20456;-73
2024/01/14 01:11:26;;;;;;;86.35;34.60;;;3.20;68.90;;;;;;5092109;28;20378;-75
2024/01/14 01:13:51;;;;;;;79.30;35.03;;;3.30;68.40;;;;;;5091537;28;20382;-74
2024/01/14 01:16:17;;;;;;;80.17;35.33;;;3.20;69.10;;;;;;5091536;28;20378;-74
2024/01/14 01:18:43;;;;;;;83.60;34.38;;;3.20;68.90;;;;;;5091360;28;20398;-73
2024/01/14 01:21:08;;;;;;;83.90;34.75;;;3.30;69.00;;;;;;5091379;28;20384;-74
2024/01/14 01:23:34;;;;;;;83.35;34.30;;;3.30;69.10;;;;;;5090423;28;20385;-73
2024/01/14 01:26:00;;;;;;;79.35;33.10;;;3.20;68.70;;;;;;5091120;28;20398;-74
2024/01/14 01:28:27;;;;;;;85.28;36.10;;;3.30;68.80;;;;;;5089996;28;22547;-73
2024/01/14 01:30:53;;;;;;;81.17;34.63;;;3.30;69.00;;;;;;5091510;28;20406;-75
2024/01/14 01:33:18;;;;;;;79.57;34.53;;;3.30;69.20;;;;;;5091712;28;20414;-75
2024/01/14 01:35:44;;;;;;;82.27;34.40;;;3.30;68.70;;;;;;5091636;28;20415;-73
2024/01/14 01:38:09;;;;;;;83.27;34.27;;;3.30;69.10;;;;;;5091426;28;20374;-75
2024/01/14 01:40:35;;;;;;;82.40;36.05;;;3.30;68.90;;;;;;5092029;28;20392;-75
2024/01/14 01:43:00;;;;;;;80.82;34.55;;;3.30;69.30;;;;;;5093326;28;20408;-74
2024/01/14 01:45:26;;;;;;;81.78;35.63;;;3.30;68.60;;;;;;5102472;28;20390;-75
2024/01/14 01:47:52;;;;;;;80.38;35.08;;;3.30;68.00;;;;;;5094690;28;20390;-74
2024/01/14 01:50:17;;;;;;;82.80;34.73;;;3.20;69.00;;;;;;5091004;28;20397;-72
2024/01/14 01:52:43;;;;;;;80.37;34.40;;;3.30;68.60;;;;;;5091097;28;20397;-73
2024/01/14 01:55:10;;;;;;;83.53;35.10;;;3.20;68.60;;;;;;5090895;28;20469;-74
2024/01/14 01:57:36;;;;;;;82.00;34.83;;;3.30;68.50;;;;;;5091061;28;20393;-74
2024/01/14 02:00:03;;;;;;;85.75;36.20;;;3.30;68.20;;;;;;5090495;28;20408;-73
2024/01/14 02:02:29;;;;;;;83.40;35.40;;;3.20;68.60;;;;;;5090566;28;20406;-72
2024/01/14 02:04:54;;;;;;;88.10;35.33;;;3.20;68.60;;;;;;5091066;28;20392;-73
2024/01/14 02:07:20;;;;;;;76.30;34.28;;;3.20;68.60;;;;;;5072862;28;20923;-74
2024/01/14 02:09:46;;;;;;;82.15;35.35;;;3.30;68.20;;;;;;5090693;28;20394;-74
2024/01/14 02:12:11;;;;;;;86.78;36.00;;;3.30;68.60;;;;;;5090411;28;20811;-73
2024/01/14 02:14:37;;;;;;;79.10;35.07;;;3.30;68.60;;;;;;5090151;28;20482;-73
2024/01/14 02:17:03;;;;;;;82.87;35.33;;;3.30;68.50;;;;;;5090178;28;20864;-73
2024/01/14 02:19:28;;;;;;;77.90;35.10;;;3.30;67.90;;;;;;5071731;28;20405;-73
2024/01/14 02:22:09;;;;;;;83.97;36.83;;;3.30;67.40;;;;;;5090413;28;20386;-74
2024/01/14 02:24:35;;;;;;;87.85;36.25;;;3.30;67.10;;;;;;5090492;28;20369;-73
2024/01/14 02:27:01;;;;;;;81.35;34.83;;;3.30;67.30;;;;;;5090543;28;20397;-72
2024/01/14 02:29:28;;;;;;;85.70;36.53;;;3.30;67.40;;;;;;5090216;28;20382;-73
2024/01/14 02:31:54;;;;;;;78.63;34.28;;;3.30;66.50;;;;;;5090393;28;20382;-73
2024/01/14 02:34:20;;;;;;;88.55;36.88;;;3.40;65.50;;;;;;5091828;28;20378;-73
2024/01/14 02:36:45;;;;;;;84.80;35.97;;;3.30;66.10;;;;;;5094730;28;20884;-73
2024/01/14 02:39:11;;;;;;;87.13;35.47;;;3.30;66.90;;;;;;5087704;28;20399;-74
2024/01/14 02:41:37;;;;;;;77.38;34.63;;;3.30;66.80;;;;;;5080572;28;20878;-73
2024/01/14 02:44:03;;;;;;;77.40;34.90;;;3.30;65.80;;;;;;5074547;28;20407;-76
2024/01/14 02:46:29;;;;;;;83.00;34.57;;;3.30;66.00;;;;;;5075013;28;20396;-74
2024/01/14 02:48:55;;;;;;;77.43;33.90;;;3.30;65.90;;;;;;5091343;28;20392;-75
2024/01/14 02:51:21;;;;;;;90.43;34.80;;;3.30;66.50;;;;;;5094250;28;20449;-75
2024/01/14 02:53:46;;;;;;;83.47;36.40;;;3.20;66.70;;;;;;5077115;28;20501;-74
2024/01/14 02:56:12;;;;;;;81.43;34.60;;;3.20;67.30;;;;;;5075818;28;20390;-73
2024/01/14 02:58:38;;;;;;;80.90;35.45;;;3.20;66.00;;;;;;5092038;28;20441;-72
2024/01/14 03:01:04;;;;;;;82.43;35.10;;;3.20;66.90;;;;;;5094353;28;20797;-74
2024/01/14 03:03:29;;;;;;;86.43;34.50;;;3.20;67.30;;;;;;5093168;28;20476;-74
2024/01/14 03:05:55;;;;;;;79.57;34.35;;;3.10;67.10;;;;;;5093946;28;20377;-73
2024/01/14 03:08:21;;;;;;;81.90;35.67;;;3.10;67.30;;;;;;5093731;28;20381;-73
2024/01/14 03:10:46;;;;;;;84.10;34.90;;;3.10;67.40;;;;;;5093581;28;20382;-73
2024/01/14 03:13:14;;;;;;;84.10;36.30;;;3.10;67.20;;;;;;5093139;28;20922;-74
2024/01/14 03:15:40;;;;;;;86.13;34.40;;;3.20;67.30;;;;;;5093344;28;20553;-73
2024/01/14 03:18:05;;;;;;;81.15;35.40;;;3.20;66.70;;;;;;5093158;28;20946;-73
2024/01/14 03:20:31;;;;;;;84.35;36.05;;;3.10;67.00;;;;;;5093091;28;20386;-74
2024/01/14 03:22:56;;;;;;;81.57;34.72;;;3.10;68.00;;;;;;5092720;28;20386;-74
2024/01/14 03:25:22;;;;;;;80.07;34.67;;;3.20;67.10;;;;;;5093029;28;20447;-73
2024/01/14 03:27:47;;;;;;;83.13;36.30;;;3.20;67.10;;;;;;5093277;28;20388;-75
2024/01/14 03:30:13;;;;;;;82.80;34.60;;;3.20;67.00;;;;;;5092778;28;20374;-74
2024/01/14 03:32:39;;;;;;;84.83;35.00;;;3.20;67.30;;;;;;5092842;28;20394;-74
2024/01/14 03:35:04;;;;;;;88.72;36.28;;;3.20;66.80;;;;;;5093274;28;20412;-74
2024/01/14 03:37:30;;;;;;;81.22;33.72;;;3.20;66.70;;;;;;5078355;28;20405;-74
2024/01/14 03:39:57;;;;;;;74.63;34.58;;;3.20;66.80;;;;;;5094338;28;20397;-75
2024/01/14 03:42:22;;;;;;;77.10;35.10;;;3.20;66.50;;;;;;5092779;28;20374;-77
2024/01/14 03:44:49;;;;;;;73.30;33.25;;;3.20;66.30;;;;;;5092919;28;20393;-74
2024/01/14 03:47:15;;;;;;;76.20;33.65;;;3.20;65.80;;;;;;5091956;28;20386;-73
2024/01/14 03:49:41;;;;;;;73.67;32.00;;;3.30;65.60;;;;;;5070781;28;20398;-74
2024/01/14 03:52:06;;;;;;;77.47;33.23;;;3.30;65.30;;;;;;5077348;28;20392;-73
2024/01/14 03:54:32;;;;;;;75.13;32.20;;;3.20;65.50;;;;;;5093503;28;20382;-72
2024/01/14 03:56:57;;;;;;;76.70;32.55;;;3.10;67.10;;;;;;5092793;28;20378;-73
2024/01/14 03:59:23;;;;;;;74.57;33.08;;;3.20;66.30;;;;;;5092586;28;20919;-74
2024/01/14 04:01:49;;;;;;;66.22;31.05;;;3.30;65.50;;;;;;5092613;28;20914;-73
2024/01/14 04:04:15;;;;;;;65.50;31.35;;;3.30;64.60;;;;;;5092559;28;20421;-75
2024/01/14 04:06:40;;;;;;;69.65;31.80;;;3.20;64.60;;;;;;5093240;28;20879;-73
2024/01/14 04:09:06;;;;;;;68.05;31.15;;;3.20;65.80;;;;;;5093317;28;20397;-74
2024/01/14 04:11:32;;;;;;;69.70;29.87;;;3.10;66.20;;;;;;5095861;28;20437;-75
2024/01/14 04:13:57;;;;;;;63.00;29.60;;;3.20;65.10;;;;;;5091585;28;20388;-75
2024/01/14 04:16:23;;;;;;;69.30;31.90;;;3.30;64.30;;;;;;5091750;28;20392;-75
2024/01/14 04:18:48;;;;;;;63.33;29.83;;;3.20;64.20;;;;;;5088533;28;20426;-75
2024/01/14 04:21:23;;;;;;;63.87;29.77;;;3.20;65.10;;;;;;5093127;28;20480;-74
2024/01/14 04:23:50;;;;;;;64.57;30.45;;;3.20;64.40;;;;;;5093079;28;20481;-74
2024/01/14 04:26:22;;;;;;;62.28;29.02;;;3.30;64.00;;;;;;5093761;28;20909;-75
2024/01/14 04:28:52;;;;;;;62.50;28.85;;;3.30;63.70;;;;;;5096114;28;20388;-75
2024/01/14 04:31:18;;;;;;;66.38;29.90;;;3.20;64.70;;;;;;5086892;28;20403;-73
2024/01/14 04:33:44;;;;;;;63.40;29.27;;;3.20;65.40;;;;;;5074207;28;20407;-72
2024/01/14 04:36:10;;;;;;;69.32;30.95;;;3.20;65.90;;;;;;5072043;28;20528;-73
2024/01/14 04:38:35;;;;;;;64.80;29.75;;;3.30;64.20;;;;;;5072024;28;20757;-75
2024/01/14 04:41:01;;;;;;;69.38;30.50;;;3.30;63.30;;;;;;5072170;28;20490;-75
2024/01/14 04:43:27;;;;;;;66.53;29.60;;;3.40;63.00;;;;;;5085048;28;20377;-75
2024/01/14 04:45:52;;;;;;;65.50;29.45;;;3.20;64.10;;;;;;5092956;28;20378;-74
2024/01/14 04:48:18;;;;;;;65.03;29.33;;;3.30;64.20;;;;;;5091699;28;20378;-73
2024/01/14 04:50:44;;;;;;;63.13;29.35;;;3.30;64.20;;;;;;5091983;28;20472;-74
2024/01/14 04:53:09;;;;;;;59.23;29.17;;;3.30;63.40;;;;;;5091557;28;20393;-74
2024/01/14 04:55:35;;;;;;;63.07;28.97;;;3.30;63.50;;;;;;5091601;28;20491;-74
2024/01/14 04:58:01;;;;;;;64.10;28.83;;;3.30;63.50;;;;;;5100464;28;20438;-74
2024/01/14 05:00:26;;;;;;;62.27;28.00;;;3.30;62.90;;;;;;5099708;28;20418;-73
2024/01/14 05:02:52;;;;;;;60.70;28.30;;;3.20;63.30;;;;;;5092089;28;20386;-74
2024/01/14 05:05:17;;;;;;;56.90;27.50;;;3.20;64.30;;;;;;5091845;28;20382;-74
2024/01/14 05:07:43;;;;;;;58.65;27.67;;;3.10;64.50;;;;;;5092091;28;20736;-73
2024/01/14 05:10:09;;;;;;;64.05;28.83;;;3.10;65.10;;;;;;5091422;28;20382;-74
2024/01/14 05:12:35;;;;;;;62.37;27.30;;;3.10;64.40;;;;;;5090837;28;20393;-73
2024/01/14 05:15:00;;;;;;;66.63;28.42;;;3.00;65.40;;;;;;5091363;28;20421;-74
2024/01/14 05:17:26;;;;;;;68.47;30.50;;;3.00;66.20;;;;;;5091302;28;20385;-73
2024/01/14 05:19:53;;;;;;;63.57;28.60;;;3.10;65.60;;;;;;5091599;28;20417;-74
2024/01/14 05:22:18;;;;;;;66.00;29.58;;;3.10;66.20;;;;;;5092446;28;20382;-74
2024/01/14 05:24:45;;;;;;;64.80;28.83;;;3.10;66.10;;;;;;5091333;28;20959;-72
2024/01/14 05:27:14;;;;;;;62.53;29.05;;;3.10;65.00;;;;;;5091167;28;20888;-74
2024/01/14 05:29:48;;;;;;;64.68;27.13;;;3.10;65.30;;;;;;5091002;28;20386;-73
2024/01/14 05:32:15;;;;;;;61.78;28.90;;;3.10;65.00;;;;;;5090906;28;20473;-72
2024/01/14 05:34:44;;;;;;;62.50;29.20;;;3.10;65.80;;;;;;5091138;28;20386;-73
2024/01/14 05:37:10;;;;;;;71.25;29.70;;;3.10;66.30;;;;;;5090869;28;20394;-72
2024/01/14 05:39:36;;;;;;;65.90;30.05;;;3.10;66.30;;;;;;5088935;28;20398;-74
2024/01/14 05:42:03;;;;;;;69.20;29.37;;;3.20;65.50;;;;;;5088796;28;20405;-75
2024/01/14 05:44:29;;;;;;;66.50;30.13;;;3.10;65.60;;;;;;5072969;28;20390;-74
2024/01/14 05:46:55;;;;;;;68.70;30.00;;;3.20;64.80;;;;;;5091301;28;20805;-73
2024/01/14 05:49:21;;;;;;;68.47;30.00;;;3.10;65.70;;;;;;5090515;28;20390;-73
2024/01/14 05:51:46;;;;;;;68.87;31.07;;;3.10;66.10;;;;;;5088137;28;20954;-74
2024/01/14 05:54:13;;;;;;;66.27;30.33;;;3.10;66.70;;;;;;5068923;28;20450;-73
2024/01/14 05:56:38;;;;;;;66.60;30.70;;;3.10;66.20;;;;;;5070626;28;20494;-74
2024/01/14 05:59:04;;;;;;;76.07;31.80;;;3.20;65.10;;;;;;5070312;28;20529;-73
2024/01/14 06:01:29;;;;;;;70.60;29.70;;;3.10;65.10;;;;;;5070410;28;20734;-74
2024/01/14 06:03:56;;;;;;;71.63;32.30;;;3.10;65.50;;;;;;5072069;28;20395;-72
2024/01/14 06:06:21;;;;;;;73.65;31.60;;;3.10;65.90;;;;;;5070968;28;20389;-73
2024/01/14 06:08:47;;;;;;;76.07;32.28;;;3.10;65.70;;;;;;5069989;28;20475;-74
2024/01/14 06:11:13;;;;;;;73.93;31.98;;;3.10;64.90;;;;;;5089855;28;20393;-73
2024/01/14 06:13:39;;;;;;;76.05;31.48;;;3.10;65.40;;;;;;5091554;28;20393;-74
2024/01/14 06:16:05;;;;;;;76.18;32.70;;;3.10;64.90;;;;;;5090128;28;20382;-74
2024/01/14 06:18:31;;;;;;;76.38;33.15;;;3.10;66.20;;;;;;5091143;28;20915;-72
2024/01/14 06:20:59;;;;;;;66.23;29.83;;;3.10;65.30;;;;;;5072329;28;20385;-73
2024/01/14 06:23:25;;;;;;;70.82;31.38;;;3.20;64.90;;;;;;5090594;28;20432;-74
2024/01/14 06:25:51;;;;;;;70.32;30.10;;;3.20;63.20;;;;;;5090724;28;20493;-74
2024/01/14 06:28:16;;;;;;;72.63;29.57;;;3.20;63.70;;;;;;5090705;28;20406;-75
2024/01/14 06:30:42;;;;;;;65.10;30.55;;;3.10;63.90;;;;;;5091049;28;20374;-75
2024/01/14 06:33:09;;;;;;;68.28;30.27;;;3.10;64.30;;;;;;5091448;28;20421;-75
2024/01/14 06:35:34;;;;;;;73.88;31.52;;;3.20;63.30;;;;;;5072757;28;20386;-73
2024/01/14 06:38:00;;;;;;;65.20;30.02;;;3.10;64.60;;;;;;5091023;28;20381;-75
2024/01/14 06:40:25;;;;;;;69.20;29.07;;;3.20;64.40;;;;;;5091015;28;20541;-75
2024/01/14 06:42:51;;;;;;;66.40;30.77;;;3.20;63.50;;;;;;5091119;28;20860;-74
2024/01/14 06:45:17;;;;;;;66.27;29.87;;;3.20;64.10;;;;;;5090940;28;20381;-73
2024/01/14 06:47:42;;;;;;;76.40;31.27;;;3.20;63.80;;;;;;5091351;28;20374;-74
2024/01/14 06:50:09;;;;;;;74.50;30.80;;;3.10;65.10;;;;;;5090630;28;20945;-73
2024/01/14 06:52:34;;;;;;;74.53;31.13;;;3.10;65.40;;;;;;5090593;28;20407;-74
2024/01/14 06:55:00;;;;;;;69.30;30.38;;;3.10;66.20;;;;;;5073613;28;20382;-77
2024/01/14 06:57:25;;;;;;;62.75;28.55;;;3.10;65.20;;;;;;5090623;28;20393;-74
2024/01/14 06:59:51;;;;;;;69.20;30.05;;;3.20;64.30;;;;;;5085570;28;20406;-74
2024/01/14 07:02:16;;;;;;;63.53;28.47;;;3.20;65.30;;;;;;5090427;28;20377;-75
2024/01/14 07:04:42;;;;;;;71.70;29.70;;;3.20;64.10;;;;;;5090365;28;20392;-73
2024/01/14 07:07:08;;;;;;;65.50;29.63;;;3.20;63.50;;;;;;5069204;28;20452;-74
2024/01/14 07:09:34;;;;;;;68.13;29.27;;;3.20;64.10;;;;;;5071105;28;20379;-75
2024/01/14 07:12:00;;;;;;;67.28;29.35;;;3.30;63.70;;;;;;5082739;28;20394;-75
2024/01/14 07:14:26;;;;;;;70.53;29.73;;;3.20;64.40;;;;;;5094034;28;20390;-74
2024/01/14 07:16:51;;;;;;;67.50;29.27;;;3.20;64.30;;;;;;5096214;28;20409;-74
2024/01/14 07:19:17;;;;;;;68.57;29.50;;;3.20;64.20;;;;;;5090169;28;20412;-75
2024/01/14 07:21:42;;;;;;;69.80;30.40;;;3.20;63.50;;;;;;5096633;28;20382;-74
2024/01/14 07:24:08;;;;;;;68.87;30.70;;;3.20;62.80;;;;;;5097754;28;20386;-75
2024/01/14 07:26:34;;;;;;;66.45;28.73;;;3.10;63.20;;;;;;5087773;28;20391;-74
2024/01/14 07:28:59;;;;;;;69.38;30.20;;;3.10;62.80;;;;;;5075269;28;20423;-74
2024/01/14 07:31:30;;;;;;;71.07;30.20;;;3.10;64.10;;;;;;5073314;28;20394;-74
2024/01/14 07:33:56;;;;;;;68.78;28.90;;;3.20;63.90;;;;;;5073136;28;20406;-73
2024/01/14 07:36:22;;;;;;;69.53;29.07;;;3.10;63.90;;;;;;5072908;28;20881;-74
2024/01/14 07:38:47;;;;;;;61.13;28.27;;;3.10;63.60;;;;;;5073982;28;20453;-73
2024/01/14 07:41:13;;;;;;;65.60;28.73;;;3.10;63.90;;;;;;5072839;28;20378;-74
2024/01/14 07:43:40;;;;;;;61.53;27.40;;;3.10;63.90;;;;;;5073015;28;20388;-75
2024/01/14 07:46:06;;;;;;;62.53;28.27;;;3.20;63.30;;;;;;5072939;28;20474;-75
2024/01/14 07:48:33;;;;;;;61.35;27.17;;;3.10;64.30;;;;;;5090899;28;20382;-75
2024/01/14 07:50:59;;;;;;;61.20;27.02;;;3.00;65.40;;;;;;5095964;28;20760;-73
2024/01/14 07:53:25;;;;;;;60.53;28.00;;;3.00;65.20;;;;;;5092848;28;20474;-73
2024/01/14 07:55:50;;;;;;;63.20;28.92;;;3.00;65.90;;;;;;5092950;28;20384;-74
2024/01/14 07:58:16;;;;;;;63.35;29.25;;;2.90;67.30;;;;;;5092706;28;20374;-73
2024/01/14 08:00:42;;;;;;;63.30;28.27;;;2.80;68.00;;;;;;5092990;28;20382;-74
2024/01/14 08:03:07;;;;;;;66.32;29.15;;;2.80;67.70;;;;;;5089535;28;20447;-74
2024/01/14 08:05:35;;;;;;;57.40;26.48;;;2.80;68.00;;;;;;5076518;28;20795;-74
2024/01/14 08:08:01;;;;;;;60.33;26.83;;;2.90;67.40;;;;;;5098825;28;20378;-75
2024/01/14 08:10:27;;;;;;;54.63;25.02;;;2.80;67.20;;;;;;5099283;28;20386;-75
2024/01/14 08:12:53;;;;;;;56.58;25.77;;;2.90;65.80;;;;;;5093330;28;20386;-73
2024/01/14 08:15:18;;;;;;;60.20;27.10;;;2.80;66.20;;;;;;5093432;28;20378;-74
2024/01/14 08:17:44;;;;;;;55.77;25.87;;;2.80;66.80;;;;;;5092890;28;20397;-74
2024/01/14 08:20:11;;;;;;;53.65;23.27;;;2.90;66.00;;;;;;5074420;28;20413;-75
2024/01/14 08:22:37;;;;;;;50.05;23.17;;;2.90;65.50;;;;;;5093236;28;20406;-74
2024/01/14 08:25:03;;;;;;;47.20;21.65;;;2.90;65.30;;;;;;5092995;28;20931;-73
2024/01/14 08:27:30;;;;;;;48.55;23.25;;;2.90;64.40;;;;;;5074223;22;20460;-71
2024/01/14 08:29:55;;;;;;;49.35;23.08;;;2.90;63.80;;;;;;5052516;28;20374;-71
2024/01/14 08:32:21;;;;;;;52.13;22.92;;;2.90;63.70;;;;;;5053416;28;20793;-71
2024/01/14 08:34:47;;;;;;;43.50;21.33;;;3.00;62.20;;;;;;5073233;28;20380;-72
2024/01/14 08:37:12;;;;;;;49.67;23.07;;;2.90;63.20;;;;;;5068351;28;20485;-72
2024/01/14 08:39:38;;;;;;;46.47;22.53;;;2.90;63.30;;;;;;5051946;28;20421;-72
2024/01/14 08:42:03;;;;;;;52.17;22.00;;;2.90;62.80;;;;;;5051807;28;20501;-72
2024/01/14 08:44:29;;;;;;;49.90;22.50;;;2.90;63.10;;;;;;5051635;28;20386;-72
2024/01/14 08:46:54;;;;;;;47.63;21.70;;;2.90;62.80;;;;;;5051826;28;20867;-73
2024/01/14 08:49:20;;;;;;;50.30;22.67;;;2.90;63.00;;;;;;5051814;28;20871;-73
2024/01/14 08:51:46;;;;;;;43.67;20.58;;;2.80;64.10;;;;;;5036865;28;20409;-72
2024/01/14 08:54:11;;;;;;;51.83;23.03;;;2.80;64.00;;;;;;5073211;28;20459;-72
2024/01/14 08:56:37;;;;;;;43.83;21.47;;;2.90;63.10;;;;;;5076864;28;20427;-72
2024/01/14 08:59:03;;;;;;;49.97;22.03;;;2.90;62.80;;;;;;5068801;28;20413;-73
2024/01/14 09:01:29;;;;;;;51.55;23.75;;;2.90;62.30;;;;;;5036470;28;20401;-73
2024/01/14 09:03:55;;;;;;;47.80;22.27;;;2.90;62.40;;;;;;5052517;28;20794;-73
2024/01/14 09:06:21;;;;;;;42.28;21.17;;;2.80;63.10;;;;;;5052032;28;20389;-71
2024/01/14 09:08:46;;;;;;;46.40;22.00;;;2.80;63.00;;;;;;5051652;28;20393;-72
2024/01/14 09:11:13;;;;;;;46.03;21.30;;;2.80;63.80;;;;;;5058882;28;20384;-73
2024/01/14 09:13:39;;;;;;;46.97;21.73;;;2.80;64.80;;;;;;5053687;28;20407;-72
2024/01/14 09:16:06;;;;;;;46.28;21.20;;;2.80;64.00;;;;;;5071885;28;20754;-72
2024/01/14 09:18:31;;;;;;;44.55;21.35;;;2.80;63.10;;;;;;5071865;28;20416;-72
2024/01/14 09:20:57;;;;;;;41.20;20.27;;;2.80;62.40;;;;;;5070444;28;20493;-73
2024/01/14 09:23:23;;;;;;;42.30;19.88;;;2.80;63.30;;;;;;5071948;28;20382;-73
2024/01/14 09:25:48;;;;;;;41.65;19.27;;;2.80;62.60;;;;;;5054083;28;20445;-72
2024/01/14 09:28:14;;;;;;;37.33;17.87;;;2.90;61.80;;;;;;5070408;28;20416;-72
2024/01/14 09:30:39;;;;;;;40.30;17.77;;;2.90;60.60;;;;;;5071038;28;20387;-71
2024/01/14 09:33:05;;;;;;;30.67;16.10;;;2.90;60.80;;;;;;5063491;28;20435;-72
2024/01/14 09:35:31;;;;;;;34.40;16.48;;;2.90;59.00;;;;;;5051161;28;20420;-71
2024/01/14 09:37:57;;;;;;;35.95;17.88;;;3.00;59.40;;;;;;5051640;28;20732;-71
2024/01/14 09:40:23;;;;;;;34.78;16.98;;;3.00;59.40;;;;;;5051592;28;20501;-72
2024/01/14 09:42:50;;;;;;;35.30;16.70;;;3.00;59.10;;;;;;5066478;28;20396;-73
2024/01/14 09:45:16;;;;;;;33.10;16.30;;;3.00;59.60;;;;;;5072498;28;20727;-71
2024/01/14 09:47:44;;;;;;;32.70;15.55;;;3.10;59.30;;;;;;5071670;28;20388;-72
2024/01/14 09:50:10;;;;;;;32.42;15.48;;;3.10;58.70;;;;;;5054887;28;20876;-73
2024/01/14 09:52:39;;;;;;;31.25;15.60;;;3.10;57.90;;;;;;5033415;28;20523;-72
2024/01/14 09:55:05;;;;;;;29.23;14.88;;;3.10;58.00;;;;;;5066146;28;20403;-72
2024/01/14 09:57:34;;;;;;;33.55;15.60;;;3.10;57.70;;;;;;5071336;28;20383;-72
2024/01/14 10:00:04;;;;;;;28.67;14.77;;;3.00;58.40;;;;;;5071370;28;20402;-70
2024/01/14 10:02:32;;;;;;;30.85;15.10;;;3.10;58.40;;;;;;5071822;28;20398;-73
2024/01/14 10:04:58;;;;;;;31.77;16.17;;;3.10;57.60;;;;;;5054691;28;20426;-72
2024/01/14 10:07:25;;;;;;;28.45;14.70;;;3.10;58.50;;;;;;5059664;28;20386;-72
2024/01/14 10:09:52;;;;;;;33.00;16.30;;;3.10;58.10;;;;;;5052944;28;20389;-71
2024/01/14 10:12:18;;;;;;;29.95;15.63;;;3.20;58.10;;;;;;5052301;28;20381;-72
2024/01/14 10:14:44;;;;;;;31.00;16.08;;;3.20;57.60;;;;;;5060529;28;20820;-75
2024/01/14 10:17:13;;;;;;;34.42;16.20;;;3.20;57.10;;;;;;5068710;28;20389;-73
2024/01/14 10:19:39;;;;;;;33.37;14.87;;;3.20;57.60;;;;;;5053863;28;20856;-73
2024/01/14 10:22:06;;;;;;;30.42;15.27;;;3.10;57.50;;;;;;5055837;28;20416;-73
2024/01/14 10:24:33;;;;;;;33.63;16.05;;;3.10;57.50;;;;;;5070419;28;20380;-72
2024/01/14 10:26:58;;;;;;;29.52;15.73;;;3.10;57.20;;;;;;5052217;28;20781;-71
2024/01/14 10:29:24;;;;;;;34.17;17.13;;;3.00;57.80;;;;;;5070368;28;20399;-72
2024/01/14 10:31:49;;;;;;;32.38;15.50;;;2.90;58.70;;;;;;5070404;28;20853;-72
2024/01/14 10:34:18;;;;;;;31.77;14.93;;;2.90;58.60;;;;;;5071022;28;20384;-72
2024/01/14 10:36:45;;;;;;;33.43;15.00;;;2.90;58.30;;;;;;5071307;28;20388;-72
2024/01/14 10:39:12;;;;;;;30.50;15.63;;;3.00;57.70;;;;;;5053367;28;20499;-73
2024/01/14 10:41:38;;;;;;;27.83;13.63;;;3.00;58.40;;;;;;5070852;28;20536;-74
2024/01/14 10:44:04;;;;;;;28.70;13.83;;;3.00;57.50;;;;;;5071287;28;20840;-71
2024/01/14 10:46:32;;;;;;;29.02;14.07;;;2.90;57.80;;;;;;5070419;28;20498;-70
2024/01/14 10:49:08;;;;;;;27.55;14.00;;;3.00;57.20;;;;;;5071312;28;20423;-73
2024/01/14 10:51:39;;;;;;;26.73;13.95;;;3.00;57.40;;;;;;5072629;28;20426;-72
2024/01/14 10:54:47;;;;;;;26.00;14.10;;;3.00;57.60;;;;;;5071469;28;20406;-72
2024/01/14 10:57:35;;;;;;;27.58;13.70;;;3.00;57.40;;;;;;5026680;28;20924;-73
2024/01/14 11:00:06;;;;;;;29.50;14.23;;;3.00;57.20;;;;;;5074964;28;20652;-72
2024/01/14 11:02:40;;;;;;;26.70;14.20;;;3.10;57.60;;;;;;5075158;28;20491;-73
2024/01/14 11:05:07;;;;;;;26.25;13.80;;;3.10;57.30;;;;;;5059257;28;20387;-72
2024/01/14 11:07:34;;;;;;;29.55;14.85;;;3.20;56.30;;;;;;5078023;28;20844;-72
2024/01/14 11:10:02;;;;;;;31.73;14.80;;;3.10;56.20;;;;;;5078720;28;20475;-71
2024/01/14 11:12:39;;;;;;;28.40;13.90;;;3.10;57.20;;;;;;5079046;28;20388;-72
2024/01/14 11:15:22;;;;;;;27.85;13.60;;;3.00;56.50;;;;;;5080708;28;20380;-72
2024/01/14 11:18:04;;;;;;;29.08;14.50;;;3.00;56.50;;;;;;5057760;28;20861;-73
2024/01/14 11:20:34;;;;;;;29.35;14.65;;;3.00;57.80;;;;;;5069231;28;20558;-74
2024/01/14 11:23:00;;;;;;;28.20;14.00;;;3.10;57.70;;;;;;5072609;28;20444;-73
2024/01/14 11:25:35;;;;;;;26.20;13.30;;;3.20;56.50;;;;;;5067396;28;20769;-73
2024/01/14 11:28:03;;;;;;;24.75;12.68;;;3.20;55.70;;;;;;5076414;28;20387;-74
2024/01/14 11:30:46;;;;;;;26.52;13.48;;;3.20;56.30;;;;;;5054287;28;20867;-74
2024/01/14 11:33:38;;;;;;;24.63;12.80;;;3.30;54.60;;;;;;5073122;28;20386;-74
2024/01/14 11:36:04;;;;;;;25.73;12.48;;;3.20;54.90;;;;;;5053434;28;20384;-74
2024/01/14 11:38:37;;;;;;;22.88;12.55;;;3.30;55.60;;;;;;5053241;28;20383;-74
2024/01/14 11:41:29;;;;;;;25.90;12.45;;;3.40;54.70;;;;;;5053309;28;20412;-74
2024/01/14 11:44:02;;;;;;;28.05;13.82;;;3.40;54.80;;;;;;5034572;28;20388;-72
2024/01/14 11:46:38;;;;;;;24.92;12.80;;;3.40;54.30;;;;;;5049020;28;20918;-73
2024/01/14 11:49:11;;;;;;;25.88;13.05;;;3.40;54.70;;;;;;5057942;28;20390;-75
2024/01/14 11:51:50;;;;;;;25.55;12.57;;;3.40;54.70;;;;;;5058774;28;20393;-74
2024/01/14 11:54:17;;;;;;;25.23;12.50;;;3.30;54.90;;;;;;5059234;28;20396;-73
2024/01/14 11:56:42;;;;;;;25.15;12.75;;;3.20;56.10;;;;;;5060006;28;20399;-74
2024/01/14 11:59:09;;;;;;;26.60;13.10;;;3.20;55.90;;;;;;5055319;28;20431;-73
2024/01/14 12:01:36;;;;;;;27.90;13.50;;;3.20;55.50;;;;;;5053107;28;20428;-73
2024/01/14 12:04:09;;;;;;;25.65;13.00;;;3.20;55.60;;;;;;5056083;28;20384;-73
2024/01/14 12:06:46;;;;;;;26.50;13.48;;;3.20;55.80;;;;;;5053814;28;20373;-73
2024/01/14 12:09:15;;;;;;;25.95;13.55;;;3.20;55.70;;;;;;5035643;28;20405;-74
2024/01/14 12:11:41;;;;;;;25.58;13.30;;;3.20;56.20;;;;;;5053443;28;20397;-73
2024/01/14 12:14:08;;;;;;;29.25;13.70;;;3.20;55.80;;;;;;5053141;28;20393;-72
2024/01/14 12:16:34;;;;;;;29.30;14.73;;;3.10;56.60;;;;;;5052619;28;20868;-73
2024/01/14 12:19:00;;;;;;;30.00;13.82;;;3.20;57.00;;;;;;5053172;28;20409;-71
2024/01/14 12:21:28;;;;;;;30.15;14.00;;;3.30;56.00;;;;;;5053198;28;20386;-71
2024/01/14 12:23:54;;;;;;;26.27;13.07;;;3.30;56.20;;;;;;5057560;28;20382;-74
2024/01/14 12:26:20;;;;;;;28.47;14.03;;;3.40;54.70;;;;;;5062377;28;20776;-72
2024/01/14 12:28:46;;;;;;;29.02;14.27;;;3.40;55.90;;;;;;5062336;28;20530;-74
2024/01/14 12:31:19;;;;;;;27.50;14.40;;;3.50;54.60;;;;;;5039634;28;20393;-71
2024/01/14 12:33:46;;;;;;;27.70;13.98;;;3.50;53.90;;;;;;5053191;28;20469;-70